LZKZ

Košice Airport

Košice, Slovakia (Slovak Republic)
TAF LZKZ 221700Z 2218/2318 01004KT CAVOK BECMG 2302/2304 01012KT BECMG 2308/2310 9999 SCT020 BKN030 PROB40 TEMPO 2310/2315 01015G25KT
Issued Valid From Valid To
Jan-22 @ 17:00 UTC
(50 minutes ago)
Jan-22 @ 18:00 UTC
(in 10 minutes)
Jan-23 @ 18:00 UTC
(in 24 hours)
Jan-22 @ 18:00 to Jan-23 @ 02:00
TAF LZKZ 221700Z 2218/2318 01004KT CAVOK
Wind Visibility Clouds Conditions
10° at 4 knots 10,000+ meters
  • No significant clouds
Becoming Jan-23 @ 02:00 to Jan-23 @ 08:00
BECMG 2302/2304 01012KT
Wind Visibility Clouds Conditions
10° at 12 knots 10,000+ meters
  • No significant clouds
Becoming Jan-23 @ 08:00 to Jan-23 @ 18:00
BECMG 2308/2310 9999 SCT020 BKN030
Wind Visibility Clouds Conditions
10° at 12 knots 10,000+ meters
  • Scattered at 2,000' AGL
  • Broken at 3,000' AGL
Temporary  (Probability 40%) Jan-23 @ 10:00 to Jan-23 @ 15:00
PROB40 TEMPO 2310/2315 01015G25KT
Wind
10° at 15 knots
 Gusting to 25 knots
TAF LZKZ 221700Z 2218/2318 01004KT CAVOK BECMG 2302/2304 01012KT BECMG 2308/2310 9999 SCT020 BKN030 PROB40 TEMPO 2310/2315 01015G25KT
Issued Jan-22 @ 17:00 UTC
(50 minutes ago)
Valid From Jan-22 @ 18:00 UTC
(in 10 minutes)
Valid To Jan-23 @ 18:00 UTC
(in 24 hours)
Jan-22 @ 18:00 - Jan-23 @ 02:00
Wind Visibility
10° at 4 knots 10,000+ meters
Clouds
  • No significant clouds
Conditions
Becoming Jan-23 @ 02:00 - Jan-23 @ 08:00
Wind Visibility
10° at 12 knots 10,000+ meters
Clouds
  • No significant clouds
Conditions
Becoming Jan-23 @ 08:00 - Jan-23 @ 18:00
Wind Visibility
10° at 12 knots 10,000+ meters
Clouds
  • Scattered at 2,000' AGL
  • Broken at 3,000' AGL
Conditions
Probability 40% Temporary Jan-23 @ 10:00 - Jan-23 @ 15:00
Wind
10° at 15 knots
 Gusting to 25 knots